Trenton, New Jersey
Current Conditions -  °F | °C
As of 2:53 PM on Friday 19 Dec 2014 (Local Time) from KTTN Reporting Station
Clear Clear  
Wind Chill: 32°   Ceiling: Unl
Heat Index: 39°   Visibility: 10mi
Dew Point: 20°   Wind: 12mph
Humidity: 46%   Direction: 340°NNW
Pressure: 30.06"   Gusts: 22mph
Location:  40.22°N, 74.76°W
Report Text: KTTN 191953Z 34010G19KT 10SM CLR 04/M07 A3006 RMK AO2 SLP173 T00391067
Loading
Personal Weather Stations






























Interactive Weather Map New forecast layout! Learn more

10-Day Weather Forecast

Advertisements
Track Severe Weather on mobile